Time;durP1;ratioP1;P1;durP2;ratioP2;P2;SDS_P1;SDS_P2;PMS_P1;PMS_P2;Temp;Humidity;BMP_temperature;BMP_pressure;BME280_temperature;BME280_humidity;BME280_pressure;Samples;Min_cycle;Max_cycle;Signal;HPM_P1;HPM_P2
2021/04/28 00:00:45;;;;;;;35.50;16.80;;;;;;;0.37;62.86;99734.85;233331;1173;115474;-65
2021/04/28 00:05:51;;;;;;;34.45;18.03;;;;;;;0.31;62.94;99734.53;233797;1173;115444;-67
2021/04/28 00:10:54;;;;;;;28.08;16.35;;;;;;;0.29;63.14;99730.47;233446;1173;115412;-67
2021/04/28 00:15:59;;;;;;;29.63;14.85;;;;;;;0.28;63.88;99736.70;233091;1174;115394;-66
2021/04/28 00:21:04;;;;;;;34.33;15.03;;;;;;;0.31;63.70;99734.53;233693;1167;115057;-66
2021/04/28 00:26:09;;;;;;;25.10;13.83;;;;;;;0.32;63.91;99723.06;233074;1174;115426;-66
2021/04/28 00:31:14;;;;;;;27.00;14.83;;;;;;;0.32;64.15;99727.48;233044;1173;115410;-66
2021/04/28 00:36:17;;;;;;;23.00;12.75;;;;;;;0.32;64.33;99722.25;234195;1173;115361;-66
2021/04/28 00:41:21;;;;;;;23.07;14.50;;;;;;;0.36;63.91;99725.34;234219;1173;115225;-66
2021/04/28 00:46:25;;;;;;;24.50;15.30;;;;;;;0.37;64.10;99725.18;234320;1173;115447;-66
2021/04/28 00:51:29;;;;;;;23.00;13.20;;;;;;;0.31;64.10;99718.80;233905;1174;116155;-66
2021/04/28 00:56:33;;;;;;;25.35;14.88;;;;;;;0.30;64.23;99722.44;234118;1174;115415;-66
2021/04/28 01:01:36;;;;;;;19.10;13.73;;;;;;;0.38;64.00;99712.89;235377;1174;115634;-64
2021/04/28 01:06:43;;;;;;;21.63;12.98;;;;;;;0.48;64.12;99711.71;234863;1174;115571;-65
2021/04/28 01:11:48;;;;;;;17.10;11.50;;;;;;;0.58;63.85;99712.33;234862;1168;115454;-64
2021/04/28 01:16:51;;;;;;;17.48;11.33;;;;;;;0.67;63.77;99708.66;234561;1173;116821;-64
2021/04/28 01:21:55;;;;;;;20.23;13.33;;;;;;;0.72;63.31;99705.53;234517;1173;114803;-65
2021/04/28 01:27:02;;;;;;;18.00;12.00;;;;;;;0.74;62.91;99692.23;233682;1173;114995;-65
2021/04/28 01:32:08;;;;;;;;;;;;;;;0.68;63.47;99691.11;233549;1173;114939;-64
2021/04/28 01:37:13;;;;;;;19.00;12.78;;;;;;;0.59;62.60;99692.16;235255;1173;101770;-66
2021/04/28 01:42:18;;;;;;;19.67;11.73;;;;;;;0.50;63.44;99686.13;233386;1172;116078;-64
2021/04/28 01:47:22;;;;;;;17.83;11.07;;;;;;;0.43;63.60;99689.60;233227;1173;115915;-61
2021/04/28 01:52:25;;;;;;;14.63;10.93;;;;;;;0.40;63.43;99696.00;232924;1173;116762;-62
2021/04/28 01:57:28;;;;;;;19.90;11.88;;;;;;;0.39;63.83;99685.68;233173;1174;116050;-63
2021/04/28 02:02:32;;;;;;;15.65;10.33;;;;;;;0.37;63.91;99679.79;232882;1173;115163;-62
2021/04/28 02:07:36;;;;;;;12.73;10.20;;;;;;;0.33;64.20;99674.06;232857;1173;114821;-61
2021/04/28 02:12:41;;;;;;;15.75;11.70;;;;;;;0.30;63.87;99670.00;233833;1174;114944;-62
2021/04/28 02:17:45;;;;;;;17.25;11.60;;;;;;;0.28;63.91;99671.16;233399;1172;115360;-62
2021/04/28 02:22:50;;;;;;;16.85;13.30;;;;;;;0.28;63.97;99671.16;234021;1173;114980;-63
2021/04/28 02:27:53;;;;;;;18.68;12.55;;;;;;;0.23;63.87;99663.80;234499;1167;115811;-62
2021/04/28 02:32:55;;;;;;;16.13;10.28;;;;;;;0.18;63.97;99666.11;233847;1173;116342;-63
2021/04/28 02:38:24;;;;;;;15.68;10.33;;;;;;;0.11;64.11;99670.39;233637;1174;115373;-62
2021/04/28 02:43:30;;;;;;;14.70;10.53;;;;;;;0.05;64.11;99660.57;233813;1172;120508;-63
2021/04/28 02:48:38;;;;;;;17.53;12.05;;;;;;;-0.04;64.14;99662.42;234089;1167;115004;-63
2021/04/28 02:53:47;;;;;;;17.95;13.25;;;;;;;-0.12;64.38;99659.81;235245;1174;115130;-63
2021/04/28 02:58:53;;;;;;;15.63;11.83;;;;;;;-0.15;64.55;99664.57;235334;1173;115488;-63
2021/04/28 03:03:57;;;;;;;21.28;12.28;;;;;;;-0.17;64.17;99656.06;235325;1173;115046;-63
2021/04/28 03:09:01;;;;;;;17.50;10.00;;;;;;;-0.22;64.54;99667.03;235287;1174;115564;-63
2021/04/28 03:14:04;;;;;;;17.05;12.05;;;;;;;-0.22;64.61;99664.42;234674;1174;115488;-63
2021/04/28 03:19:08;;;;;;;16.10;12.85;;;;;;;-0.19;64.73;99665.89;234699;1174;115125;-65
2021/04/28 03:24:12;;;;;;;15.00;13.05;;;;;;;-0.16;64.81;99663.75;234541;1173;115606;-66
2021/04/28 03:29:17;;;;;;;19.80;11.03;;;;;;;-0.11;64.80;99664.08;233080;1174;115851;-67
2021/04/28 03:34:20;;;;;;;18.47;11.17;;;;;;;0.19;64.96;99659.06;233320;1172;116166;-66
2021/04/28 03:39:25;;;;;;;15.65;11.38;;;;;;;0.64;64.48;99658.34;233784;1172;114998;-67
2021/04/28 03:44:28;;;;;;;16.53;11.23;;;;;;;1.07;64.14;99656.11;233364;1172;115801;-64
2021/04/28 03:49:32;;;;;;;16.33;12.00;;;;;;;1.89;63.31;99662.25;233719;1168;114934;-64
2021/04/28 03:54:35;;;;;;;13.85;8.88;;;;;;;2.82;63.29;99659.78;233347;1172;114624;-65
2021/04/28 03:59:38;;;;;;;12.57;5.90;;;;;;;4.12;61.26;99659.41;233806;1167;114885;-64
2021/04/28 04:04:42;;;;;;;9.83;8.77;;;;;;;3.89;61.15;99654.41;233430;1172;114795;-64
2021/04/28 04:09:47;;;;;;;13.20;9.30;;;;;;;3.45;60.12;99666.04;232820;1174;114352;-64
2021/04/28 04:14:49;;;;;;;16.55;10.35;;;;;;;3.12;61.03;99655.21;233747;1174;115431;-64
2021/04/28 04:19:53;;;;;;;9.10;7.30;;;;;;;2.96;60.38;99661.56;233342;1174;115685;-64
2021/04/28 04:24:56;;;;;;;10.20;6.07;;;;;;;3.01;60.86;99664.45;232815;1167;116582;-64
2021/04/28 04:30:02;;;;;;;14.25;10.25;;;;;;;3.08;60.07;99663.67;233557;1173;115651;-66
2021/04/28 04:35:07;;;;;;;10.30;5.73;;;;;;;3.33;59.38;99662.31;233973;1173;116079;-66
2021/04/28 04:40:11;;;;;;;11.65;9.05;;;;;;;3.40;59.86;99663.16;233761;1173;115547;-64
2021/04/28 04:45:14;;;;;;;18.90;10.38;;;;;;;3.44;58.82;99659.14;233802;1173;116713;-65
2021/04/28 04:50:19;;;;;;;15.48;9.53;;;;;;;3.55;58.97;99658.63;234316;1173;115258;-65
2021/04/28 04:55:23;;;;;;;11.85;8.15;;;;;;;3.65;59.21;99661.76;233431;1173;115446;-65
2021/04/28 05:00:28;;;;;;;13.10;8.27;;;;;;;3.80;58.76;99658.19;233947;1173;115644;-65
2021/04/28 05:05:33;;;;;;;13.28;7.98;;;;;;;4.04;58.99;99649.81;233952;1173;118186;-65
2021/04/28 05:10:36;;;;;;;5.93;3.83;;;;;;;7.32;54.86;99647.11;235223;1173;114636;-63
2021/04/28 05:15:40;;;;;;;10.87;5.37;;;;;;;9.62;52.09;99639.21;235405;1173;114592;-63
2021/04/28 05:20:46;;;;;;;8.35;7.55;;;;;;;12.50;49.08;99636.62;234448;1173;115546;-64
2021/04/28 05:25:50;;;;;;;10.23;7.38;;;;;;;13.55;47.52;99635.24;233320;1173;115814;-64
2021/04/28 05:30:54;;;;;;;9.13;6.38;;;;;;;16.67;43.91;99629.02;234106;1173;115931;-65
2021/04/28 05:35:58;;;;;;;7.37;5.43;;;;;;;16.61;42.40;99630.08;233217;1174;115522;-64
2021/04/28 05:41:01;;;;;;;10.37;6.70;;;;;;;15.19;41.98;99624.98;233695;1172;114930;-65
2021/04/28 05:46:06;;;;;;;10.20;6.30;;;;;;;15.37;40.25;99616.38;233356;1173;115450;-64
2021/04/28 05:51:09;;;;;;;9.90;6.58;;;;;;;14.55;40.17;99630.75;233529;1173;116402;-63
2021/04/28 05:56:14;;;;;;;10.43;5.83;;;;;;;13.10;40.08;99628.43;233102;1173;115295;-65
2021/04/28 06:01:18;;;;;;;6.77;5.57;;;;;;;12.32;40.56;99641.20;232798;1173;114999;-63
2021/04/28 06:06:21;;;;;;;10.55;6.78;;;;;;;11.52;41.29;99640.84;233563;1173;115572;-63
2021/04/28 06:11:24;;;;;;;9.70;6.28;;;;;;;10.79;41.94;99645.98;233184;1173;115518;-65
2021/04/28 06:16:27;;;;;;;6.93;4.23;;;;;;;10.20;41.63;99647.20;233124;1173;115219;-64
2021/04/28 06:21:32;;;;;;;6.13;5.43;;;;;;;9.77;43.04;99648.38;233318;1173;115195;-63
2021/04/28 06:26:37;;;;;;;6.33;5.33;;;;;;;9.54;43.44;99635.03;233516;1173;116187;-64
2021/04/28 06:31:39;;;;;;;6.87;5.77;;;;;;;9.47;43.09;99633.55;233418;1173;114871;-65
2021/04/28 06:36:42;;;;;;;9.97;5.73;;;;;;;9.47;42.99;99633.55;233050;1173;115530;-68
2021/04/28 06:41:45;;;;;;;7.97;6.13;;;;;;;9.52;43.71;99630.98;233846;1173;115419;-63
2021/04/28 06:46:48;;;;;;;7.93;6.50;;;;;;;9.63;43.40;99628.33;233497;1172;115597;-66
2021/04/28 06:51:51;;;;;;;10.13;5.20;;;;;;;9.85;43.35;99630.41;233808;1173;115040;-65
2021/04/28 06:56:54;;;;;;;6.20;4.53;;;;;;;10.23;43.04;99622.75;234950;1173;117695;-66
2021/04/28 07:01:57;;;;;;;7.05;4.85;;;;;;;11.42;42.12;99628.13;234080;1174;115445;-68
2021/04/28 07:07:00;;;;;;;5.90;4.93;;;;;;;12.85;41.17;99634.31;235157;1173;115598;-63
2021/04/28 07:12:02;;;;;;;11.65;7.13;;;;;;;13.73;40.57;99618.78;235229;1173;115242;-67
2021/04/28 07:17:08;;;;;;;7.13;3.65;;;;;;;14.44;39.43;99622.65;234567;1173;115417;-65
2021/04/28 07:22:11;;;;;;;7.00;5.80;;;;;;;14.42;38.35;99619.42;234128;1172;115069;-64
2021/04/28 07:27:17;;;;;;;11.60;5.10;;;;;;;14.88;38.92;99611.52;234949;1173;115808;-65
2021/04/28 07:32:20;;;;;;;8.60;5.90;;;;;;;15.40;38.51;99616.65;233816;1174;116379;-64
2021/04/28 07:37:23;;;;;;;4.90;4.40;;;;;;;15.83;37.65;99609.92;233024;1173;116346;-63
2021/04/28 07:42:26;;;;;;;8.35;5.38;;;;;;;16.09;36.34;99617.92;233820;1173;121916;-66
2021/04/28 07:47:29;;;;;;;7.37;5.33;;;;;;;16.25;35.71;99615.97;233838;1174;116465;-64
2021/04/28 07:52:49;;;;;;;4.30;3.90;;;;;;;16.22;35.25;99608.45;232981;1173;115361;-66
2021/04/28 07:57:52;;;;;;;4.87;4.40;;;;;;;16.36;34.93;99604.10;233754;1174;115280;-65
2021/04/28 08:02:55;;;;;;;4.35;4.05;;;;;;;16.51;35.58;99609.40;232921;1173;115336;-64
2021/04/28 08:07:58;;;;;;;6.88;4.95;;;;;;;16.72;35.30;99608.27;233052;1171;115853;-64
2021/04/28 08:13:01;;;;;;;7.25;5.48;;;;;;;16.90;34.58;99601.41;233831;1173;116243;-65
2021/04/28 08:18:05;;;;;;;8.55;4.83;;;;;;;16.88;34.48;99594.69;233110;1173;114839;-64
2021/04/28 08:23:07;;;;;;;11.07;7.50;;;;;;;16.51;33.66;99587.88;233025;1172;114829;-66
2021/04/28 08:28:10;;;;;;;7.20;4.60;;;;;;;16.19;33.82;99593.70;232470;1173;115916;-66
2021/04/28 08:33:14;;;;;;;7.10;5.33;;;;;;;16.26;34.97;99583.42;232997;1173;116172;-64
2021/04/28 08:38:17;;;;;;;6.60;5.90;;;;;;;16.40;35.06;99581.76;232536;1174;115669;-67
2021/04/28 08:43:24;;;;;;;5.63;5.13;;;;;;;16.56;34.65;99582.47;232998;1173;115324;-63
2021/04/28 08:48:28;;;;;;;6.68;5.10;;;;;;;16.48;33.23;99586.56;233966;1172;116105;-66
2021/04/28 08:53:33;;;;;;;5.43;4.33;;;;;;;16.21;33.27;99575.38;233259;1167;115717;-65
2021/04/28 08:58:38;;;;;;;3.65;3.30;;;;;;;16.25;33.17;99571.05;232936;1173;115870;-66
2021/04/28 09:03:44;;;;;;;5.10;4.33;;;;;;;16.48;34.44;99570.42;233495;1174;115413;-64
2021/04/28 09:08:48;;;;;;;6.20;4.88;;;;;;;16.77;34.81;99558.98;234591;1173;115331;-62
2021/04/28 09:14:10;;;;;;;5.05;4.53;;;;;;;16.68;33.35;99563.34;235255;1167;114907;-65
2021/04/28 09:19:37;;;;;;;5.93;5.03;;;;;;;16.63;33.26;99556.06;234527;1174;115864;-64
2021/04/28 09:24:54;;;;;;;7.88;4.68;;;;;;;16.77;33.92;99550.91;234155;1173;115200;-67
2021/04/28 09:29:58;;;;;;;4.88;4.35;;;;;;;16.97;33.46;99542.67;234974;1173;115262;-67
2021/04/28 09:35:16;;;;;;;4.88;4.33;;;;;;;17.06;33.46;99529.41;234130;1173;115994;-65
2021/04/28 09:40:38;;;;;;;4.88;3.98;;;;;;;17.22;32.85;99532.77;234586;1172;115763;-65
2021/04/28 09:45:45;;;;;;;7.38;5.48;;;;;;;17.42;33.11;99521.81;233549;1173;116038;-65
2021/04/28 09:50:50;;;;;;;5.70;4.55;;;;;;;17.68;32.66;99514.30;233552;1173;115102;-67
2021/04/28 09:55:53;;;;;;;6.78;5.23;;;;;;;17.70;32.39;99510.22;232577;1174;115592;-66
2021/04/28 10:01:00;;;;;;;8.63;5.20;;;;;;;17.68;32.20;99504.31;232512;1173;115456;-66
2021/04/28 10:06:03;;;;;;;4.90;4.50;;;;;;;17.74;32.65;99500.45;232737;1173;116166;-66
2021/04/28 10:11:06;;;;;;;16.05;5.43;;;;;;;17.84;31.71;99492.25;233009;1173;115890;-66
2021/04/28 10:16:08;;;;;;;5.60;4.95;;;;;;;17.67;31.42;99478.45;233247;1173;115419;-65
2021/04/28 10:21:11;;;;;;;6.85;5.25;;;;;;;17.55;31.21;99475.31;233649;1173;116066;-67
2021/04/28 10:26:14;;;;;;;7.43;5.10;;;;;;;17.46;31.40;99475.13;233408;1173;115188;-66
2021/04/28 10:31:18;;;;;;;6.20;5.60;;;;;;;17.51;32.44;99471.58;233142;1168;115654;-66
2021/04/28 10:36:21;;;;;;;6.48;5.30;;;;;;;17.67;33.46;99464.16;233032;1172;116852;-66
2021/04/28 10:41:42;;;;;;;6.75;4.83;;;;;;;17.87;32.23;99455.02;233143;1167;115132;-66
2021/04/28 10:46:44;;;;;;;6.55;4.55;;;;;;;17.75;32.13;99458.91;233307;1173;115282;-66
2021/04/28 10:51:53;;;;;;;5.55;5.15;;;;;;;17.59;31.98;99456.67;233953;1173;115383;-67
2021/04/28 10:57:05;;;;;;;7.20;4.17;;;;;;;17.74;31.95;99449.22;233628;1173;115828;-66
2021/04/28 11:02:14;;;;;;;8.35;5.30;;;;;;;18.03;31.73;99446.45;234009;1174;115211;-67
2021/04/28 11:07:44;;;;;;;12.63;5.77;;;;;;;18.21;32.43;99447.53;233951;1173;115098;-67
2021/04/28 11:13:17;;;;;;;6.48;5.78;;;;;;;18.17;32.20;99433.02;233281;1173;115592;-66
2021/04/28 11:18:26;;;;;;;8.23;5.25;;;;;;;18.06;31.59;99428.85;234435;1172;115543;-66
2021/04/28 11:23:30;;;;;;;6.27;5.20;;;;;;;17.97;30.17;99422.53;233639;1173;115667;-65
2021/04/28 11:28:36;;;;;;;11.60;6.63;;;;;;;18.07;30.88;99416.97;235283;1174;115721;-66
2021/04/28 11:33:40;;;;;;;44.55;8.90;;;;;;;18.08;30.63;99416.68;235108;1173;114679;-66
2021/04/28 11:38:46;;;;;;;6.13;5.55;;;;;;;18.03;30.83;99407.88;233224;1172;115715;-66
2021/04/28 11:43:57;;;;;;;6.65;5.03;;;;;;;18.08;31.28;99403.20;233765;1173;116170;-65
2021/04/28 11:49:03;;;;;;;7.03;6.18;;;;;;;18.11;31.19;99394.52;233219;1173;116013;-66
2021/04/28 11:54:10;;;;;;;4.30;3.88;;;;;;;18.18;30.61;99394.96;233917;1174;115228;-66
2021/04/28 11:59:22;;;;;;;6.63;6.00;;;;;;;17.96;30.95;99392.06;233381;1172;115227;-67
2021/04/28 12:04:31;;;;;;;5.23;4.78;;;;;;;17.94;30.82;99388.05;233936;1172;115458;-67
2021/04/28 12:09:46;;;;;;;6.88;5.23;;;;;;;18.05;31.28;99379.50;233914;1174;115036;-67
2021/04/28 12:14:53;;;;;;;6.20;5.35;;;;;;;18.01;31.00;99372.31;233295;1174;115140;-67
2021/04/28 12:19:56;;;;;;;7.48;4.75;;;;;;;18.15;31.76;99367.77;233225;1172;116006;-66
2021/04/28 12:25:03;;;;;;;6.15;5.63;;;;;;;18.18;31.53;99372.58;233105;1172;115432;-66
2021/04/28 12:30:07;;;;;;;8.95;6.35;;;;;;;18.17;29.51;99357.48;233284;1172;115448;-66
2021/04/28 12:35:21;;;;;;;13.85;5.65;;;;;;;18.24;29.60;99359.81;233175;1174;114849;-66
2021/04/28 12:40:51;;;;;;;6.00;5.30;;;;;;;18.42;29.93;99350.88;233206;1173;115242;-66
2021/04/28 12:46:08;;;;;;;6.53;4.70;;;;;;;18.50;29.84;99366.40;233297;1173;115631;-66
2021/04/28 12:51:15;;;;;;;6.03;5.03;;;;;;;18.49;29.26;99346.70;233620;1172;119023;-66
2021/04/28 12:56:18;;;;;;;5.03;4.63;;;;;;;18.32;30.04;99346.47;232808;1173;115161;-66
2021/04/28 13:01:23;;;;;;;4.37;3.97;;;;;;;18.05;30.34;99339.05;233220;1173;115605;-66
2021/04/28 13:06:26;;;;;;;6.35;5.70;;;;;;;17.82;29.87;99331.85;233592;1173;114704;-66
2021/04/28 13:11:44;;;;;;;9.03;6.33;;;;;;;17.53;29.17;99333.84;233965;1171;115353;-65
2021/04/28 13:16:54;;;;;;;7.20;4.90;;;;;;;17.35;29.92;99322.77;233135;1173;116115;-66
2021/04/28 13:22:03;;;;;;;8.58;4.60;;;;;;;17.57;29.76;99314.12;234758;1173;116210;-66
2021/04/28 13:27:27;;;;;;;4.65;3.78;;;;;;;17.54;29.76;99312.00;235393;1173;114643;-67
2021/04/28 13:32:44;;;;;;;5.20;4.70;;;;;;;17.54;29.84;99306.61;235407;1173;117889;-66
2021/04/28 13:37:57;;;;;;;4.70;3.77;;;;;;;17.61;30.33;99303.56;234697;1173;115356;-66
2021/04/28 13:43:08;;;;;;;11.33;4.38;;;;;;;17.99;30.21;99299.79;234968;1173;114822;-66
2021/04/28 13:48:14;;;;;;;5.28;4.80;;;;;;;18.09;29.80;99301.50;235084;1173;114895;-67
2021/04/28 13:53:19;;;;;;;5.30;4.80;;;;;;;17.78;29.22;99291.19;233369;1173;115365;-66
2021/04/28 13:58:23;;;;;;;5.43;4.63;;;;;;;17.78;29.02;99279.60;233842;1172;115703;-66
2021/04/28 14:03:27;;;;;;;11.50;4.20;;;;;;;17.90;29.53;99276.47;233287;1173;115940;-66
2021/04/28 14:08:30;;;;;;;4.80;4.28;;;;;;;18.01;29.31;99273.33;233587;1173;115196;-65
2021/04/28 14:13:36;;;;;;;10.75;5.15;;;;;;;18.14;29.22;99269.05;233962;1173;115326;-67
2021/04/28 14:18:39;;;;;;;5.73;5.20;;;;;;;17.97;28.71;99280.41;233827;1174;115204;-66
2021/04/28 14:23:43;;;;;;;6.53;4.80;;;;;;;17.93;29.43;99273.19;233277;1167;115384;-66
2021/04/28 14:28:47;;;;;;;4.65;4.25;;;;;;;17.94;29.32;99262.11;233336;1173;115904;-65
2021/04/28 14:33:50;;;;;;;5.53;5.03;;;;;;;17.93;28.90;99257.02;233206;1173;116025;-66
2021/04/28 14:38:54;;;;;;;6.98;3.75;;;;;;;17.82;28.86;99254.47;233407;1173;116331;-66
2021/04/28 14:43:56;;;;;;;4.15;3.78;;;;;;;17.58;29.10;99251.04;233771;1173;116023;-66
2021/04/28 14:49:00;;;;;;;7.63;5.08;;;;;;;17.25;28.67;99260.94;233776;1173;117805;-66
2021/04/28 14:54:03;;;;;;;8.75;4.35;;;;;;;16.88;28.74;99248.20;233135;1173;115962;-64
2021/04/28 14:59:07;;;;;;;4.75;4.35;;;;;;;16.77;28.64;99246.74;234238;1167;116025;-65
2021/04/28 15:04:10;;;;;;;7.13;5.10;;;;;;;16.66;28.22;99232.59;233530;1173;116985;-65
2021/04/28 15:09:14;;;;;;;6.75;4.80;;;;;;;16.55;28.30;99231.06;233200;1174;115722;-65
2021/04/28 15:14:17;;;;;;;6.27;4.53;;;;;;;16.49;28.39;99226.84;233177;1173;115761;-66
2021/04/28 15:19:20;;;;;;;3.68;3.38;;;;;;;16.44;29.46;99221.52;234429;1173;115573;-66
2021/04/28 15:24:23;;;;;;;4.58;4.10;;;;;;;16.35;29.52;99224.02;234293;1174;115724;-66
2021/04/28 15:29:26;;;;;;;11.30;4.40;;;;;;;16.30;29.28;99210.62;235282;1173;115064;-66
2021/04/28 15:34:31;;;;;;;5.05;4.20;;;;;;;16.32;29.83;99211.14;235333;1174;116020;-65
2021/04/28 15:39:35;;;;;;;5.03;4.05;;;;;;;16.33;30.09;99212.74;235066;1174;115511;-66
2021/04/28 15:44:39;;;;;;;4.15;3.78;;;;;;;16.29;29.68;99208.21;233988;1173;115175;-66
2021/04/28 15:49:46;;;;;;;7.13;4.05;;;;;;;16.15;29.54;99205.41;234447;1172;115561;-66
2021/04/28 15:54:48;;;;;;;4.93;4.50;;;;;;;16.00;29.93;99206.34;234110;1173;115059;-66
2021/04/28 15:59:51;;;;;;;5.35;4.90;;;;;;;15.88;30.22;99205.93;233750;1172;114929;-66
2021/04/28 16:04:54;;;;;;;7.68;4.35;;;;;;;15.78;30.66;99204.13;234217;1173;115924;-65
2021/04/28 16:09:57;;;;;;;5.95;5.35;;;;;;;15.66;31.00;99195.61;233503;1173;115183;-66
2021/04/28 16:14:59;;;;;;;4.47;4.03;;;;;;;15.44;30.37;99197.91;233554;1173;115255;-65
2021/04/28 16:20:04;;;;;;;5.13;3.45;;;;;;;15.25;30.18;99189.72;234047;1173;115870;-65
2021/04/28 16:25:12;;;;;;;5.05;3.63;;;;;;;15.08;30.85;99179.33;233224;1173;114974;-65
2021/04/28 16:30:16;;;;;;;5.40;4.05;;;;;;;14.91;30.98;99181.59;232719;1173;114739;-66
2021/04/28 16:35:19;;;;;;;4.83;3.45;;;;;;;14.75;30.33;99172.80;233581;1173;115008;-65
2021/04/28 16:40:22;;;;;;;6.98;4.43;;;;;;;14.63;30.04;99177.70;233187;1174;115457;-65
2021/04/28 16:45:25;;;;;;;3.98;3.65;;;;;;;14.50;30.41;99172.91;232911;1173;115116;-65
2021/04/28 16:50:29;;;;;;;7.38;3.98;;;;;;;14.39;30.35;99171.30;233977;1173;115017;-66
2021/04/28 16:55:33;;;;;;;5.13;4.63;;;;;;;14.29;30.91;99172.14;234581;1172;114917;-65
2021/04/28 17:00:37;;;;;;;8.73;4.45;;;;;;;14.18;31.15;99164.39;233911;1172;114776;-65
2021/04/28 17:05:39;;;;;;;10.05;4.28;;;;;;;14.05;31.71;99168.45;233985;1173;116811;-65
2021/04/28 17:10:43;;;;;;;7.30;4.63;;;;;;;13.92;32.09;99166.33;233585;1173;115652;-65
2021/04/28 17:15:47;;;;;;;16.43;5.15;;;;;;;13.75;32.23;99166.63;232861;1173;117600;-66
2021/04/28 17:20:50;;;;;;;6.78;5.63;;;;;;;13.51;32.17;99160.98;233957;1172;115725;-65
2021/04/28 17:25:54;;;;;;;6.28;5.73;;;;;;;13.31;32.50;99155.63;235354;1173;115025;-65
2021/04/28 17:30:57;;;;;;;9.28;6.60;;;;;;;13.11;33.13;99167.09;235242;1173;116289;-65
2021/04/28 17:36:00;;;;;;;25.77;17.93;;;;;;;12.94;33.17;99166.50;235419;1173;115580;-64
2021/04/28 17:41:05;;;;;;;35.70;9.80;;;;;;;12.79;34.03;99172.63;235216;1174;119812;-64
2021/04/28 17:46:07;;;;;;;9.15;6.30;;;;;;;12.65;33.65;99168.81;232942;1173;117421;-64
2021/04/28 17:51:10;;;;;;;7.30;5.95;;;;;;;12.45;33.70;99162.33;233987;1174;116650;-64
2021/04/28 17:56:13;;;;;;;9.65;6.78;;;;;;;12.26;33.78;99177.18;233803;1174;115926;-64
2021/04/28 18:01:17;;;;;;;11.43;7.67;;;;;;;12.07;34.00;99178.69;232609;1167;116488;-66
2021/04/28 18:06:21;;;;;;;17.30;9.05;;;;;;;11.86;34.13;99177.75;232672;1173;116871;-67
2021/04/28 18:11:26;;;;;;;8.50;5.13;;;;;;;11.65;34.38;99184.76;233966;1173;116586;-64
2021/04/28 18:16:30;;;;;;;7.08;5.63;;;;;;;11.46;34.53;99178.20;233082;1172;116179;-66
2021/04/28 18:21:33;;;;;;;5.08;4.33;;;;;;;11.28;34.48;99184.72;233210;1172;115182;-66
2021/04/28 18:26:38;;;;;;;11.45;5.63;;;;;;;11.12;35.04;99185.61;232933;1173;115705;-65
2021/04/28 18:31:41;;;;;;;9.35;4.88;;;;;;;10.97;35.40;99180.94;233130;1173;115716;-67
2021/04/28 18:36:44;;;;;;;12.03;6.20;;;;;;;10.81;35.61;99184.48;232641;1173;115103;-66
2021/04/28 18:41:48;;;;;;;20.90;8.80;;;;;;;10.61;35.74;99197.58;233866;1173;115537;-66
2021/04/28 18:46:51;;;;;;;8.47;6.13;;;;;;;10.41;36.13;99192.77;233532;1172;115507;-66
2021/04/28 18:51:55;;;;;;;13.90;6.63;;;;;;;10.24;36.70;99202.68;232876;1174;116670;-66
2021/04/28 18:56:59;;;;;;;15.88;8.28;;;;;;;10.04;38.23;99201.31;233002;1168;116186;-67
2021/04/28 19:02:04;;;;;;;13.10;8.53;;;;;;;9.83;37.97;99199.38;233474;1174;115613;-66
2021/04/28 19:07:10;;;;;;;23.45;8.58;;;;;;;9.65;37.80;99195.12;234173;1170;114705;-64
2021/04/28 19:12:16;;;;;;;15.75;8.68;;;;;;;9.47;39.12;99190.04;234751;1172;114772;-65
2021/04/28 19:17:22;;;;;;;17.50;7.60;;;;;;;9.34;39.42;99199.13;233815;1173;115878;-66
2021/04/28 19:22:25;;;;;;;15.25;8.33;;;;;;;9.17;39.86;99200.15;234189;1174;115728;-64
2021/04/28 19:27:29;;;;;;;22.30;10.17;;;;;;;9.00;40.86;99194.77;235249;1173;114471;-63
2021/04/28 19:32:34;;;;;;;30.25;13.68;;;;;;;8.83;41.66;99197.39;235183;1173;115693;-64
2021/04/28 19:37:38;;;;;;;26.43;11.93;;;;;;;8.68;42.29;99195.22;234620;1174;115763;-64
2021/04/28 19:42:43;;;;;;;22.08;12.25;;;;;;;8.53;42.32;99191.47;233530;1174;115554;-66
2021/04/28 19:47:46;;;;;;;17.55;9.45;;;;;;;8.39;41.77;99186.40;233259;1173;116126;-66
2021/04/28 19:52:50;;;;;;;18.83;8.70;;;;;;;8.35;42.02;99185.24;233202;1173;115571;-66
2021/04/28 19:57:53;;;;;;;14.70;8.83;;;;;;;8.33;40.92;99184.67;233623;1173;114995;-66
2021/04/28 20:02:56;;;;;;;17.78;8.50;;;;;;;8.37;41.11;99177.86;233581;1173;115971;-66
2021/04/28 20:07:59;;;;;;;11.73;8.75;;;;;;;8.35;40.54;99176.47;232674;1173;117925;-65
2021/04/28 20:13:02;;;;;;;12.18;9.15;;;;;;;8.28;41.88;99176.56;232824;1173;116950;-66
2021/04/28 20:18:06;;;;;;;17.05;9.58;;;;;;;8.21;41.44;99177.75;233788;1173;116021;-68
2021/04/28 20:23:10;;;;;;;16.70;9.35;;;;;;;8.12;41.25;99171.97;233066;1174;116399;-66
2021/04/28 20:28:14;;;;;;;17.40;9.85;;;;;;;7.99;41.80;99169.55;233245;1173;115980;-68
2021/04/28 20:33:18;;;;;;;24.95;14.33;;;;;;;7.86;42.03;99173.26;233792;1173;115577;-66
2021/04/28 20:38:22;;;;;;;19.20;10.50;;;;;;;7.79;41.99;99169.91;233095;1172;116431;-66
2021/04/28 20:43:25;;;;;;;19.73;11.83;;;;;;;7.67;42.23;99177.84;233764;1171;117117;-66
2021/04/28 20:48:27;;;;;;;22.73;13.05;;;;;;;7.55;42.77;99177.04;233587;1173;116351;-66
2021/04/28 20:53:34;;;;;;;9.48;6.36;;;;;;;7.44;43.13;99168.02;233633;1173;117499;-67
2021/04/28 20:58:37;;;;;;;16.43;9.28;;;;;;;7.30;42.96;99161.32;233575;1173;116947;-67
2021/04/28 21:03:39;;;;;;;20.87;12.47;;;;;;;7.26;43.69;99165.45;233231;1173;115344;-67
2021/04/28 21:08:42;;;;;;;21.60;10.95;;;;;;;7.19;44.41;99158.63;233918;1173;116307;-66
2021/04/28 21:13:44;;;;;;;15.43;10.00;;;;;;;7.10;44.77;99166.89;232953;1173;116431;-67
2021/04/28 21:18:46;;;;;;;13.73;10.30;;;;;;;6.96;45.26;99159.38;233219;1173;116433;-67
2021/04/28 21:23:48;;;;;;;20.70;11.48;;;;;;;6.80;45.46;99152.84;234097;1167;116799;-65
2021/04/28 21:28:51;;;;;;;18.78;12.05;;;;;;;6.66;45.34;99144.28;235444;1173;118263;-62
2021/04/28 21:33:54;;;;;;;26.28;12.30;;;;;;;6.63;45.23;99147.38;235354;1174;115289;-62
2021/04/28 21:38:56;;;;;;;32.55;15.55;;;;;;;6.64;45.74;99141.05;235243;1173;115012;-62
2021/04/28 21:43:58;;;;;;;20.63;15.45;;;;;;;6.64;45.91;99145.53;234512;1173;115824;-64
2021/04/28 21:49:01;;;;;;;21.10;13.30;;;;;;;6.60;46.57;99142.52;232947;1172;115477;-65
2021/04/28 21:54:04;;;;;;;16.00;11.95;;;;;;;6.54;46.00;99145.25;234761;1173;114948;-65
2021/04/28 21:59:07;;;;;;;22.13;10.83;;;;;;;6.50;45.80;99144.88;234629;1173;116240;-66
2021/04/28 22:04:10;;;;;;;18.13;10.85;;;;;;;6.49;46.42;99142.45;234143;1173;116026;-65
2021/04/28 22:09:14;;;;;;;24.30;12.68;;;;;;;6.38;46.76;99144.03;234555;1173;117820;-63
2021/04/28 22:14:18;;;;;;;30.35;14.43;;;;;;;6.29;48.32;99138.22;232915;1173;115470;-65
2021/04/28 22:19:22;;;;;;;20.40;12.15;;;;;;;6.23;48.15;99141.73;233543;1172;115353;-65
2021/04/28 22:24:26;;;;;;;21.55;13.88;;;;;;;6.12;48.57;99137.17;233262;1173;115248;-64
2021/04/28 22:29:29;;;;;;;27.67;15.33;;;;;;;6.06;47.90;99135.43;233565;1173;114710;-66
2021/04/28 22:34:32;;;;;;;24.13;13.35;;;;;;;5.99;48.73;99122.27;232531;1173;115384;-65
2021/04/28 22:39:35;;;;;;;33.48;13.83;;;;;;;5.92;49.10;99124.16;233100;1173;115151;-64
2021/04/28 22:44:40;;;;;;;21.10;12.43;;;;;;;5.88;48.65;99124.78;233427;1173;116600;-64
2021/04/28 22:49:43;;;;;;;14.65;10.00;;;;;;;5.85;49.36;99125.22;233129;1172;115621;-64
2021/04/28 22:54:47;;;;;;;16.23;10.73;;;;;;;5.76;50.76;99124.72;233045;1173;115801;-65
2021/04/28 22:59:51;;;;;;;17.48;10.75;;;;;;;5.69;51.24;99121.32;233665;1167;115831;-65
2021/04/28 23:04:54;;;;;;;18.40;11.08;;;;;;;5.62;50.73;99113.44;233152;1172;115165;-63
2021/04/28 23:09:58;;;;;;;21.48;12.28;;;;;;;5.60;50.38;99112.84;233211;1172;115688;-64
2021/04/28 23:15:05;;;;;;;14.15;9.68;;;;;;;5.55;51.65;99111.88;233980;1173;118835;-64